METAR Data
IDs: Format: Raw Decoded Include TAF

Data at: 1212 UTC 07 Oct 2022

LFBY 071200Z AUTO 05004KT 350V100 9999 // ////// 25/16 Q1021